Time;durP1;ratioP1;P1;durP2;ratioP2;P2;SDS_P1;SDS_P2;PMS_P1;PMS_P2;Temp;Humidity;BMP_temperature;BMP_pressure;BME280_temperature;BME280_humidity;BME280_pressure;Samples;Min_cycle;Max_cycle;Signal;HPM_P1;HPM_P2
2022/11/16 00:01:45;;;;;;;15.23;8.13;;;7.60;99.90;;;;;;4110631;28;20460;-78
2022/11/16 00:03:48;;;;;;;14.80;7.83;;;7.50;99.90;;;;;;4115123;28;20993;-77
2022/11/16 00:05:55;;;;;;;15.53;8.03;;;7.60;99.90;;;;;;4110130;28;20475;-78
2022/11/16 00:07:59;;;;;;;14.87;8.07;;;7.50;99.90;;;;;;4112003;28;20466;-78
2022/11/16 00:10:01;;;;;;;15.33;7.87;;;7.40;99.90;;;;;;4113817;28;20487;-78
2022/11/16 00:12:05;;;;;;;15.93;7.83;;;7.40;99.90;;;;;;4112797;28;20464;-77
2022/11/16 00:14:08;;;;;;;14.93;7.33;;;7.40;99.90;;;;;;4109659;28;20464;-77
2022/11/16 00:16:15;;;;;;;15.70;7.73;;;7.40;99.90;;;;;;4115531;28;20455;-78
2022/11/16 00:18:17;;;;;;;13.53;7.93;;;7.30;99.90;;;;;;4110534;28;20470;-77
2022/11/16 00:20:19;;;;;;;15.70;7.40;;;7.30;99.90;;;;;;4109992;28;21105;-78
2022/11/16 00:22:21;;;;;;;14.13;7.50;;;7.30;99.90;;;;;;4112899;28;20491;-78
2022/11/16 00:24:24;;;;;;;16.33;7.77;;;7.20;99.90;;;;;;4111581;28;20538;-77
2022/11/16 00:26:27;;;;;;;13.50;7.23;;;7.20;99.90;;;;;;4109245;28;21048;-77
2022/11/16 00:28:29;;;;;;;16.97;8.13;;;7.20;99.90;;;;;;4113955;28;20451;-77
2022/11/16 00:30:31;;;;;;;19.73;8.73;;;7.20;99.90;;;;;;4109594;28;20548;-77
2022/11/16 00:32:33;;;;;;;18.17;8.93;;;7.20;99.90;;;;;;4113994;28;20523;-77
2022/11/16 00:34:35;;;;;;;20.03;9.93;;;7.10;99.90;;;;;;4115418;28;20475;-78
2022/11/16 00:36:37;;;;;;;18.00;9.13;;;7.10;99.90;;;;;;4116377;28;20515;-78
2022/11/16 00:38:40;;;;;;;18.27;9.07;;;7.10;99.90;;;;;;4113665;28;20487;-78
2022/11/16 00:40:43;;;;;;;16.83;9.20;;;7.10;99.90;;;;;;4107174;28;20507;-77
2022/11/16 00:42:45;;;;;;;18.30;8.83;;;7.10;99.90;;;;;;4111844;28;20551;-80
2022/11/16 00:44:47;;;;;;;16.60;8.67;;;7.10;99.90;;;;;;4110313;28;20858;-78
2022/11/16 00:46:49;;;;;;;18.87;9.10;;;7.00;99.90;;;;;;4116065;28;20595;-77
2022/11/16 00:48:50;;;;;;;17.80;8.97;;;7.00;99.90;;;;;;4115774;28;20456;-78
2022/11/16 00:50:53;;;;;;;16.23;8.60;;;7.00;99.90;;;;;;4105865;28;20492;-77
2022/11/16 00:52:54;;;;;;;19.50;9.43;;;7.00;99.90;;;;;;4121757;28;20476;-77
2022/11/16 00:54:56;;;;;;;20.07;10.30;;;7.00;99.90;;;;;;4111664;28;20483;-77
2022/11/16 00:57:00;;;;;;;17.07;8.83;;;7.00;99.90;;;;;;4109230;28;20459;-77
2022/11/16 00:59:02;;;;;;;17.20;9.07;;;7.00;99.90;;;;;;4114620;28;20479;-77
2022/11/16 01:01:05;;;;;;;20.03;9.60;;;6.90;99.90;;;;;;4114085;28;20886;-78
2022/11/16 01:03:07;;;;;;;16.87;9.27;;;6.90;99.90;;;;;;4113944;28;21039;-77
2022/11/16 01:05:11;;;;;;;19.73;9.43;;;6.90;99.90;;;;;;4114734;28;20483;-77
2022/11/16 01:07:12;;;;;;;16.87;8.80;;;6.90;99.90;;;;;;4127250;28;20494;-77
2022/11/16 01:09:14;;;;;;;16.50;9.13;;;7.00;99.90;;;;;;4115508;28;21251;-77
2022/11/16 01:13:38;;;;;;;18.00;9.10;;;6.80;99.90;;;;;;4113087;28;20488;-77
2022/11/16 01:15:47;;;;;;;20.73;9.83;;;6.80;99.90;;;;;;4110448;28;20491;-77
2022/11/16 01:17:50;;;;;;;18.50;8.90;;;6.80;99.90;;;;;;4111541;28;20471;-77
2022/11/16 01:19:52;;;;;;;18.53;8.97;;;6.80;99.90;;;;;;4116515;28;20997;-77
2022/11/16 01:21:54;;;;;;;19.47;9.43;;;6.70;99.90;;;;;;4115656;28;20450;-77
2022/11/16 01:23:56;;;;;;;19.00;9.53;;;6.70;99.90;;;;;;4127946;28;20451;-77
2022/11/16 01:26:00;;;;;;;17.93;9.60;;;6.70;99.90;;;;;;4113533;28;20571;-77
2022/11/16 01:28:02;;;;;;;20.40;9.00;;;6.60;99.90;;;;;;4117999;28;20821;-77
2022/11/16 01:30:08;;;;;;;19.00;9.30;;;6.60;99.90;;;;;;4117290;28;20466;-77
2022/11/16 01:32:09;;;;;;;16.30;9.00;;;6.60;99.90;;;;;;4111432;28;20467;-77
2022/11/16 01:34:11;;;;;;;18.83;10.00;;;6.60;99.90;;;;;;4113420;28;20467;-78
2022/11/16 01:36:14;;;;;;;18.17;9.37;;;6.50;99.90;;;;;;4112570;28;20471;-77
2022/11/16 01:38:16;;;;;;;16.97;9.27;;;6.50;99.90;;;;;;4113018;28;20557;-77
2022/11/16 01:40:18;;;;;;;18.13;9.23;;;6.60;99.90;;;;;;4112154;28;20588;-77
2022/11/16 01:42:21;;;;;;;17.80;9.23;;;6.50;99.90;;;;;;4114768;28;20556;-77
2022/11/16 01:44:55;;;;;;;18.60;9.17;;;6.40;99.90;;;;;;4114787;28;21005;-77
2022/11/16 01:46:59;;;;;;;17.50;9.03;;;6.40;99.90;;;;;;4112233;28;20462;-77
2022/11/16 01:49:05;;;;;;;20.27;9.23;;;6.40;99.90;;;;;;4112957;28;20454;-77
2022/11/16 01:51:07;;;;;;;18.47;8.90;;;6.40;99.90;;;;;;4111085;28;20493;-77
2022/11/16 01:53:12;;;;;;;17.37;8.97;;;6.40;99.90;;;;;;4115465;28;20490;-77
2022/11/16 01:55:14;;;;;;;17.00;8.97;;;6.30;99.90;;;;;;4115391;28;21032;-77
2022/11/16 01:57:22;;;;;;;15.77;8.60;;;6.30;99.90;;;;;;4114270;28;20490;-77
2022/11/16 01:59:24;;;;;;;19.13;9.60;;;6.30;99.90;;;;;;4111862;28;20497;-77
2022/11/16 02:01:26;;;;;;;16.57;9.47;;;6.30;99.90;;;;;;4112749;28;20533;-78
2022/11/16 02:03:29;;;;;;;16.73;8.73;;;6.30;99.90;;;;;;4114347;28;20506;-78
2022/11/16 02:05:40;;;;;;;19.90;9.53;;;6.30;99.90;;;;;;4116030;28;20576;-77
2022/11/16 02:10:48;;;;;;;16.80;9.23;;;6.30;99.90;;;;;;4117157;28;20458;-77
2022/11/16 02:13:07;;;;;;;16.97;8.77;;;6.30;99.90;;;;;;4114556;28;20559;-77
2022/11/16 02:15:20;;;;;;;21.83;9.03;;;6.30;99.90;;;;;;4113334;28;20478;-77
2022/11/16 02:17:35;;;;;;;19.37;9.47;;;6.30;99.90;;;;;;4114176;28;20475;-78
2022/11/16 02:20:07;;;;;;;18.07;9.73;;;6.20;99.90;;;;;;4118074;28;20589;-77
2022/11/16 02:22:23;;;;;;;18.57;9.67;;;6.20;99.90;;;;;;4112532;28;20540;-77
2022/11/16 02:24:44;;;;;;;18.10;9.13;;;6.20;99.90;;;;;;4110172;28;20509;-77
2022/11/16 02:27:19;;;;;;;19.77;8.77;;;6.20;99.90;;;;;;4110608;28;20478;-77
2022/11/16 02:29:25;;;;;;;16.27;8.43;;;6.20;99.90;;;;;;4109416;28;20501;-77
2022/11/16 02:31:32;;;;;;;17.77;9.07;;;6.10;99.90;;;;;;4110225;28;20466;-77
2022/11/16 02:33:38;;;;;;;19.70;9.47;;;6.10;99.90;;;;;;4112568;28;20482;-77
2022/11/16 02:35:43;;;;;;;18.50;9.43;;;6.10;99.90;;;;;;4110568;28;20470;-77
2022/11/16 02:37:50;;;;;;;21.83;9.40;;;6.10;99.90;;;;;;4114613;28;20548;-77
2022/11/16 02:39:57;;;;;;;19.37;9.50;;;6.10;99.90;;;;;;4114062;28;20578;-77
2022/11/16 02:42:01;;;;;;;18.30;9.07;;;6.10;99.90;;;;;;4113606;28;20473;-77
2022/11/16 02:44:08;;;;;;;17.17;9.37;;;6.10;99.90;;;;;;4110699;28;20562;-77
2022/11/16 02:46:18;;;;;;;16.77;8.73;;;6.00;99.90;;;;;;4113586;28;20463;-77
2022/11/16 02:48:24;;;;;;;17.23;9.33;;;6.10;99.90;;;;;;4114462;28;20471;-77
2022/11/16 02:50:27;;;;;;;17.03;7.90;;;6.10;99.90;;;;;;4114752;28;20505;-77
2022/11/16 02:52:29;;;;;;;16.73;8.80;;;6.10;99.90;;;;;;4106851;28;20474;-77
2022/11/16 02:54:31;;;;;;;16.00;8.73;;;6.00;99.90;;;;;;4115331;28;21009;-77
2022/11/16 02:56:42;;;;;;;16.13;8.80;;;6.00;99.90;;;;;;4113191;28;21196;-77
2022/11/16 02:58:45;;;;;;;15.90;8.07;;;6.00;99.90;;;;;;4113821;28;20544;-77
2022/11/16 03:00:55;;;;;;;15.67;8.43;;;6.00;99.90;;;;;;4113857;28;20489;-77
2022/11/16 03:03:16;;;;;;;17.23;9.00;;;6.00;99.90;;;;;;4114192;28;20556;-77
2022/11/16 03:05:30;;;;;;;13.00;7.27;;;5.90;99.90;;;;;;4113948;28;20486;-77
2022/11/16 03:07:38;;;;;;;18.80;9.27;;;5.90;99.90;;;;;;4113152;28;20527;-80
2022/11/16 03:09:42;;;;;;;16.43;8.13;;;5.90;99.90;;;;;;4108294;28;20491;-77
2022/11/16 03:11:58;;;;;;;16.60;8.63;;;5.90;99.90;;;;;;4116517;28;20477;-77
2022/11/16 03:14:02;;;;;;;15.67;8.63;;;5.90;99.90;;;;;;4111614;28;20489;-77
2022/11/16 03:16:09;;;;;;;17.40;9.17;;;5.90;99.90;;;;;;4114877;28;20477;-77
2022/11/16 03:18:16;;;;;;;15.57;8.33;;;5.90;99.90;;;;;;4115050;28;20513;-77
2022/11/16 03:20:21;;;;;;;15.20;8.13;;;5.90;99.90;;;;;;4117075;28;20924;-77
2022/11/16 03:22:27;;;;;;;16.00;7.77;;;5.90;99.90;;;;;;4118609;28;20467;-77
2022/11/16 03:24:30;;;;;;;15.97;8.53;;;5.90;99.90;;;;;;4117771;28;20601;-77
2022/11/16 03:26:43;;;;;;;17.47;8.57;;;5.80;99.90;;;;;;4117013;28;20992;-77
2022/11/16 03:28:52;;;;;;;17.90;8.57;;;5.80;99.90;;;;;;4111528;28;20473;-77
2022/11/16 03:30:58;;;;;;;17.63;8.67;;;5.80;99.90;;;;;;4124277;28;20468;-77
2022/11/16 03:33:07;;;;;;;18.17;8.63;;;5.80;99.90;;;;;;4114850;28;20500;-77
2022/11/16 03:35:15;;;;;;;17.03;9.07;;;5.80;99.90;;;;;;4117032;28;20505;-77
2022/11/16 03:37:17;;;;;;;16.53;8.50;;;5.70;99.90;;;;;;4115211;28;20484;-77
2022/11/16 03:39:23;;;;;;;16.07;8.20;;;5.70;99.90;;;;;;4112257;28;20460;-77
2022/11/16 03:41:26;;;;;;;16.60;8.43;;;5.70;99.90;;;;;;4115569;28;20500;-77
2022/11/16 03:43:30;;;;;;;19.47;8.80;;;5.70;99.90;;;;;;4116299;28;20822;-77
2022/11/16 03:45:33;;;;;;;19.37;8.97;;;5.70;99.90;;;;;;4112829;28;20490;-77
2022/11/16 03:47:35;;;;;;;17.00;8.83;;;5.70;99.90;;;;;;4114211;28;20519;-77
2022/11/16 03:49:37;;;;;;;18.67;8.73;;;5.70;99.90;;;;;;4115132;28;20489;-77
2022/11/16 03:51:40;;;;;;;17.47;8.57;;;5.60;99.90;;;;;;4115553;28;21083;-77
2022/11/16 03:53:42;;;;;;;17.00;8.87;;;5.60;99.90;;;;;;4115865;28;20499;-77
2022/11/16 03:55:44;;;;;;;19.03;9.60;;;5.60;99.90;;;;;;4115728;28;20864;-77
2022/11/16 03:57:46;;;;;;;17.27;8.83;;;5.60;99.90;;;;;;4117445;28;20470;-77
2022/11/16 03:59:48;;;;;;;18.33;8.40;;;5.70;99.90;;;;;;4116180;28;20497;-77
2022/11/16 04:01:51;;;;;;;17.00;8.53;;;5.60;99.90;;;;;;4116062;28;20458;-77
2022/11/16 04:03:53;;;;;;;15.93;8.23;;;5.60;99.90;;;;;;4115038;28;20472;-78
2022/11/16 04:24:45;;;;;;;16.13;8.67;;;5.40;99.90;;;;;;4112969;28;20480;-77
2022/11/16 04:29:09;;;;;;;16.07;8.10;;;5.40;99.90;;;;;;4113636;28;20815;-77
2022/11/16 04:38:11;;;;;;;15.73;8.30;;;5.40;99.90;;;;;;4112312;28;21012;-77
2022/11/16 04:40:15;;;;;;;17.90;8.03;;;5.40;99.90;;;;;;4113362;28;20482;-77
2022/11/16 04:42:21;;;;;;;17.77;8.53;;;5.50;99.90;;;;;;4115322;28;20477;-77
2022/11/16 04:44:23;;;;;;;14.30;8.37;;;5.30;99.90;;;;;;4115527;28;20445;-77
2022/11/16 04:48:44;;;;;;;14.93;7.43;;;5.40;99.90;;;;;;4118909;28;20465;-77
2022/11/16 04:50:48;;;;;;;17.47;8.17;;;5.40;99.90;;;;;;4112548;28;20829;-77
2022/11/16 04:52:50;;;;;;;14.50;7.60;;;5.30;99.90;;;;;;4115902;28;20500;-77
2022/11/16 04:54:52;;;;;;;16.33;8.17;;;5.40;99.90;;;;;;4117404;28;20501;-77
2022/11/16 04:56:55;;;;;;;14.87;7.97;;;5.40;99.90;;;;;;4115452;28;20492;-77
2022/11/16 04:58:57;;;;;;;16.03;8.20;;;5.40;99.90;;;;;;4111954;28;20505;-77
2022/11/16 05:01:00;;;;;;;13.70;8.10;;;5.40;99.90;;;;;;4116156;28;20523;-77
2022/11/16 05:03:03;;;;;;;14.30;7.80;;;5.40;99.90;;;;;;4113929;28;20579;-77
2022/11/16 05:05:06;;;;;;;15.70;8.10;;;5.30;99.90;;;;;;4116161;28;20481;-77
2022/11/16 05:07:09;;;;;;;15.83;8.17;;;5.40;99.90;;;;;;4114130;28;20552;-77
2022/11/16 05:09:11;;;;;;;17.43;9.20;;;5.60;99.90;;;;;;4116045;28;20528;-77
2022/11/16 05:11:13;;;;;;;14.23;8.20;;;5.40;99.90;;;;;;4119063;28;21147;-77
2022/11/16 05:13:17;;;;;;;16.73;8.70;;;5.40;99.90;;;;;;4110695;28;20718;-77
2022/11/16 05:15:19;;;;;;;14.97;7.50;;;5.40;99.90;;;;;;4116363;28;21016;-77
2022/11/16 05:17:22;;;;;;;14.83;8.20;;;5.30;99.90;;;;;;4113437;28;21269;-77
2022/11/16 05:21:43;;;;;;;14.23;7.87;;;5.40;99.90;;;;;;4112159;28;20464;-77
2022/11/16 05:26:04;;;;;;;15.90;8.53;;;5.40;99.90;;;;;;4110625;28;20487;-77
2022/11/16 05:28:06;;;;;;;16.67;8.37;;;5.40;99.90;;;;;;4114678;28;20475;-77
2022/11/16 05:30:11;;;;;;;16.67;8.07;;;5.40;99.90;;;;;;4111132;28;20465;-77
2022/11/16 05:32:15;;;;;;;14.33;8.00;;;5.40;99.90;;;;;;4114499;28;20462;-76
2022/11/16 05:34:17;;;;;;;16.30;8.33;;;5.30;99.90;;;;;;4114493;28;20504;-77
2022/11/16 05:36:19;;;;;;;14.93;7.93;;;5.40;99.90;;;;;;4112377;28;20528;-77
2022/11/16 05:38:21;;;;;;;16.77;8.43;;;5.40;99.90;;;;;;4115893;28;20496;-76
2022/11/16 05:40:23;;;;;;;15.50;8.70;;;5.40;99.90;;;;;;4118300;28;20485;-77
2022/11/16 05:42:25;;;;;;;16.67;8.03;;;5.40;99.90;;;;;;4119048;28;20471;-77
2022/11/16 05:44:27;;;;;;;16.80;8.33;;;5.40;99.90;;;;;;4114435;28;20481;-77
2022/11/16 05:46:30;;;;;;;18.93;9.17;;;5.40;99.90;;;;;;4113154;28;20548;-77
2022/11/16 05:48:32;;;;;;;17.37;8.93;;;5.40;99.90;;;;;;4113699;28;20593;-77
2022/11/16 05:50:34;;;;;;;17.00;8.40;;;5.40;99.90;;;;;;4112538;28;20476;-77
2022/11/16 05:52:36;;;;;;;15.43;7.80;;;5.40;99.90;;;;;;4117180;28;20516;-77
2022/11/16 05:54:38;;;;;;;15.17;8.00;;;5.40;99.90;;;;;;4114293;28;20490;-77
2022/11/16 05:56:40;;;;;;;15.90;7.73;;;5.40;99.90;;;;;;4110637;28;20995;-77
2022/11/16 05:58:44;;;;;;;16.80;8.83;;;5.40;99.90;;;;;;4119576;28;20477;-77
2022/11/16 06:00:46;;;;;;;16.17;8.33;;;5.40;99.90;;;;;;4113080;28;20524;-77
2022/11/16 06:02:50;;;;;;;16.67;7.67;;;5.30;99.90;;;;;;4116818;28;20493;-77
2022/11/16 06:04:52;;;;;;;18.07;8.80;;;5.40;99.90;;;;;;4114965;28;21190;-76
2022/11/16 06:06:53;;;;;;;15.00;7.50;;;5.30;99.90;;;;;;4113197;28;20468;-77
2022/11/16 06:08:56;;;;;;;15.00;8.10;;;5.30;99.90;;;;;;4114615;28;20529;-77
2022/11/16 06:11:01;;;;;;;16.43;8.23;;;5.30;99.90;;;;;;4114258;28;20844;-77
2022/11/16 06:13:03;;;;;;;16.60;7.87;;;5.30;99.90;;;;;;4114564;28;20925;-77
2022/11/16 06:15:06;;;;;;;16.87;8.73;;;5.40;99.90;;;;;;4114431;28;20523;-77
2022/11/16 06:17:13;;;;;;;15.43;8.03;;;5.40;99.90;;;;;;4103751;28;20468;-75
2022/11/16 06:19:16;;;;;;;17.13;8.40;;;5.40;99.90;;;;;;4109636;28;20527;-77
2022/11/16 06:21:19;;;;;;;16.03;7.97;;;5.40;99.90;;;;;;4112719;28;20581;-77
2022/11/16 06:23:21;;;;;;;16.83;8.23;;;5.30;99.90;;;;;;4112612;28;20480;-76
2022/11/16 06:25:23;;;;;;;15.73;8.37;;;5.30;99.90;;;;;;4113133;28;20515;-77
2022/11/16 06:27:25;;;;;;;17.57;8.47;;;5.40;99.90;;;;;;4111455;28;20470;-77
2022/11/16 06:29:27;;;;;;;15.73;8.00;;;5.30;99.90;;;;;;4113198;28;20483;-77
2022/11/16 06:31:29;;;;;;;16.60;8.10;;;5.40;99.90;;;;;;4107548;28;20450;-77
2022/11/16 06:33:31;;;;;;;16.20;7.90;;;5.40;99.90;;;;;;4111438;28;20461;-77
2022/11/16 06:35:34;;;;;;;15.20;7.53;;;5.40;99.90;;;;;;4112904;28;20570;-77
2022/11/16 06:37:36;;;;;;;17.10;8.40;;;5.70;99.90;;;;;;4114454;28;20445;-77
2022/11/16 06:39:38;;;;;;;13.67;7.83;;;5.40;99.90;;;;;;4112258;28;20461;-77
2022/11/16 06:41:40;;;;;;;16.67;8.20;;;5.40;99.90;;;;;;4112865;28;20958;-77
2022/11/16 06:43:42;;;;;;;14.60;7.83;;;5.40;99.90;;;;;;4114001;28;20484;-77
2022/11/16 06:45:47;;;;;;;16.83;8.53;;;5.40;99.90;;;;;;4113027;28;20873;-78
2022/11/16 06:47:49;;;;;;;15.47;8.37;;;5.50;99.90;;;;;;4125659;28;20492;-77
2022/11/16 06:49:51;;;;;;;17.50;9.07;;;5.40;99.90;;;;;;4108573;28;20465;-77
2022/11/16 06:51:55;;;;;;;15.13;8.30;;;5.40;99.90;;;;;;4112554;28;20832;-77
2022/11/16 06:53:57;;;;;;;15.43;8.03;;;5.50;99.90;;;;;;4108771;28;20461;-77
2022/11/16 06:56:02;;;;;;;16.00;8.50;;;5.50;99.90;;;;;;4116080;28;20473;-77
2022/11/16 06:58:03;;;;;;;15.10;7.90;;;5.50;99.90;;;;;;4117534;28;20458;-77
2022/11/16 07:00:07;;;;;;;16.90;8.17;;;5.50;99.90;;;;;;4117046;28;20454;-77
2022/11/16 07:02:10;;;;;;;15.60;9.03;;;5.40;99.90;;;;;;4132408;28;20465;-77
2022/11/16 07:04:12;;;;;;;14.80;7.63;;;5.50;99.90;;;;;;4116603;28;21422;-77
2022/11/16 07:06:14;;;;;;;16.17;8.83;;;5.50;99.90;;;;;;4116112;28;20557;-77
2022/11/16 07:08:18;;;;;;;18.00;9.37;;;5.50;99.90;;;;;;4113740;28;20461;-77
2022/11/16 07:10:20;;;;;;;16.10;7.77;;;5.50;99.90;;;;;;4116807;28;20461;-77
2022/11/16 07:12:21;;;;;;;17.07;8.27;;;5.50;99.90;;;;;;4115521;28;20462;-78
2022/11/16 07:14:23;;;;;;;15.93;8.13;;;5.50;99.90;;;;;;4111683;28;20951;-78
2022/11/16 07:16:26;;;;;;;17.67;8.40;;;5.50;99.90;;;;;;4116845;28;20508;-77
2022/11/16 07:18:28;;;;;;;12.03;7.07;;;5.60;99.90;;;;;;4115093;28;20557;-77
2022/11/16 07:20:30;;;;;;;14.03;7.50;;;5.60;99.90;;;;;;4111058;28;20464;-77
2022/11/16 07:22:32;;;;;;;17.77;9.10;;;5.60;99.90;;;;;;4111390;28;20459;-80
2022/11/16 07:24:36;;;;;;;18.50;8.57;;;5.60;99.90;;;;;;4116701;28;20473;-78
2022/11/16 07:26:38;;;;;;;16.50;8.27;;;5.60;99.90;;;;;;4113291;28;20458;-78
2022/11/16 07:28:40;;;;;;;17.37;8.97;;;5.60;99.90;;;;;;4116355;28;20466;-78
2022/11/16 07:30:45;;;;;;;15.77;8.33;;;5.70;99.90;;;;;;4109584;28;20916;-78
2022/11/16 07:32:47;;;;;;;16.40;8.10;;;5.70;99.90;;;;;;4116322;28;20978;-78
2022/11/16 07:34:49;;;;;;;16.33;8.40;;;5.70;99.90;;;;;;4111636;28;20479;-78
2022/11/16 07:36:51;;;;;;;14.40;7.47;;;5.70;99.90;;;;;;4114320;28;20497;-78
2022/11/16 07:38:53;;;;;;;15.63;8.13;;;5.70;99.90;;;;;;4116445;28;20457;-78
2022/11/16 07:40:59;;;;;;;15.77;8.30;;;5.70;99.90;;;;;;4113857;28;21057;-78
2022/11/16 07:43:01;;;;;;;20.43;8.73;;;5.80;99.90;;;;;;4116328;28;20833;-78
2022/11/16 07:45:03;;;;;;;14.83;7.70;;;5.80;99.90;;;;;;4112921;28;20527;-77
2022/11/16 07:47:06;;;;;;;13.93;6.90;;;5.80;99.90;;;;;;4115784;28;20462;-78
2022/11/16 07:49:08;;;;;;;13.07;7.20;;;5.90;99.90;;;;;;4112871;28;20487;-78
2022/11/16 07:51:12;;;;;;;11.23;6.87;;;5.90;99.90;;;;;;4112856;28;20449;-77
2022/11/16 07:53:14;;;;;;;13.10;7.23;;;5.90;99.90;;;;;;4109986;28;20463;-78
2022/11/16 07:55:16;;;;;;;13.30;7.30;;;5.90;99.90;;;;;;4113233;28;20491;-78
2022/11/16 07:57:19;;;;;;;12.93;7.03;;;6.00;99.90;;;;;;4109517;28;20510;-78
2022/11/16 07:59:21;;;;;;;13.70;7.30;;;6.00;99.90;;;;;;4114509;28;20462;-78
2022/11/16 08:01:24;;;;;;;12.63;7.07;;;6.10;99.90;;;;;;4110509;28;20565;-77
2022/11/16 08:03:26;;;;;;;12.67;6.87;;;6.10;99.90;;;;;;4127656;28;20481;-78
2022/11/16 08:05:28;;;;;;;12.33;7.27;;;6.10;99.90;;;;;;4117963;28;20481;-77
2022/11/16 08:07:30;;;;;;;15.60;7.73;;;6.10;99.90;;;;;;4114897;28;20469;-78
2022/11/16 08:09:36;;;;;;;14.03;7.00;;;6.20;99.90;;;;;;4112927;28;20465;-78
2022/11/16 08:11:39;;;;;;;13.27;6.93;;;6.20;99.90;;;;;;4122869;28;20860;-77
2022/11/16 08:13:42;;;;;;;13.30;7.60;;;6.20;99.90;;;;;;4115412;28;20465;-78
2022/11/16 08:15:45;;;;;;;16.27;9.20;;;6.30;99.90;;;;;;4116055;28;20470;-78
2022/11/16 08:17:50;;;;;;;17.03;10.37;;;6.30;99.90;;;;;;4112512;28;20467;-77
2022/11/16 08:19:54;;;;;;;16.33;9.53;;;6.30;99.90;;;;;;4113191;28;20465;-78
2022/11/16 08:21:56;;;;;;;15.97;8.93;;;6.40;99.90;;;;;;4113633;28;20546;-78
2022/11/16 08:24:02;;;;;;;16.93;8.87;;;6.40;99.90;;;;;;4109064;28;20496;-77
2022/11/16 08:26:06;;;;;;;16.27;9.00;;;6.40;99.90;;;;;;4109557;28;20474;-78
2022/11/16 08:28:09;;;;;;;14.47;8.70;;;6.40;99.90;;;;;;4114684;28;20547;-78
2022/11/16 08:30:13;;;;;;;20.00;11.53;;;6.50;99.90;;;;;;4113443;28;21110;-78
2022/11/16 08:32:15;;;;;;;17.13;10.47;;;6.50;99.90;;;;;;4141318;23;20451;-76
2022/11/16 08:34:17;;;;;;;19.10;10.97;;;6.50;99.90;;;;;;4155697;28;20457;-75
2022/11/16 08:36:20;;;;;;;15.93;9.73;;;6.50;99.90;;;;;;4153194;28;20895;-74
2022/11/16 08:38:22;;;;;;;15.50;8.20;;;6.50;99.90;;;;;;4159708;28;20473;-80
2022/11/16 08:40:24;;;;;;;14.27;7.90;;;6.60;99.90;;;;;;4153181;28;20573;-76
2022/11/16 08:42:25;;;;;;;13.13;7.30;;;6.60;99.90;;;;;;4151327;28;20574;-76
2022/11/16 08:44:27;;;;;;;15.43;8.47;;;6.60;99.90;;;;;;4144380;28;20489;-76
2022/11/16 08:46:31;;;;;;;14.40;8.50;;;6.70;99.90;;;;;;4143479;28;20456;-76
2022/11/16 08:48:33;;;;;;;10.90;7.00;;;6.70;99.90;;;;;;4143791;28;20895;-75
2022/11/16 08:50:35;;;;;;;11.50;6.97;;;6.70;99.90;;;;;;4145337;28;20461;-76
2022/11/16 08:52:37;;;;;;;11.00;6.23;;;6.80;99.90;;;;;;4144278;28;20476;-76
2022/11/16 08:54:43;;;;;;;11.00;6.27;;;6.80;99.90;;;;;;4143878;28;20468;-75
2022/11/16 08:56:45;;;;;;;12.27;6.67;;;6.80;99.90;;;;;;4144676;28;20461;-76
2022/11/16 08:58:47;;;;;;;12.37;6.03;;;6.90;99.90;;;;;;4139601;28;20473;-75
2022/11/16 09:00:50;;;;;;;9.70;5.27;;;6.90;99.90;;;;;;4145069;28;20682;-76
2022/11/16 09:02:53;;;;;;;9.83;5.40;;;6.90;99.90;;;;;;4139594;28;20474;-76
2022/11/16 09:04:55;;;;;;;11.20;5.70;;;7.00;99.90;;;;;;4144617;28;20557;-77
2022/11/16 09:06:57;;;;;;;11.00;5.83;;;7.00;99.90;;;;;;4144043;28;20576;-78
2022/11/16 09:08:59;;;;;;;10.67;6.37;;;7.10;99.90;;;;;;4147920;28;20458;-77
2022/11/16 09:11:04;;;;;;;12.23;6.23;;;7.00;99.90;;;;;;4146014;28;20462;-76
2022/11/16 09:13:06;;;;;;;10.57;6.13;;;7.10;99.90;;;;;;4142541;28;20482;-75
2022/11/16 09:15:10;;;;;;;10.87;6.20;;;7.10;99.90;;;;;;4141895;28;20501;-75
2022/11/16 09:17:12;;;;;;;10.40;5.83;;;7.10;99.90;;;;;;4137870;28;20466;-75
2022/11/16 09:19:16;;;;;;;11.33;5.83;;;7.10;99.90;;;;;;4142802;28;20558;-75
2022/11/16 09:21:19;;;;;;;11.80;6.10;;;7.20;99.90;;;;;;4142658;28;20493;-75
2022/11/16 09:23:21;;;;;;;14.77;8.83;;;7.20;99.90;;;;;;4142533;28;20908;-76
2022/11/16 09:25:25;;;;;;;15.17;8.93;;;7.20;99.90;;;;;;4143605;28;20548;-76
2022/11/16 09:27:27;;;;;;;20.17;11.67;;;7.20;99.90;;;;;;4144725;28;20453;-75
2022/11/16 09:29:29;;;;;;;25.30;15.20;;;7.20;99.90;;;;;;4145173;28;20484;-75
2022/11/16 09:31:33;;;;;;;28.50;17.70;;;7.20;99.90;;;;;;4142330;28;20493;-75
2022/11/16 09:33:35;;;;;;;28.93;16.77;;;7.30;99.90;;;;;;4137146;28;20529;-75
2022/11/16 09:35:39;;;;;;;23.60;15.00;;;7.30;99.90;;;;;;4143698;28;20562;-75
2022/11/16 09:37:41;;;;;;;23.40;13.53;;;7.30;99.90;;;;;;4139375;28;20443;-76
2022/11/16 09:39:43;;;;;;;22.47;13.40;;;7.30;99.90;;;;;;4143039;28;20454;-74
2022/11/16 09:42:07;;;;;;;22.87;13.00;;;7.40;99.90;;;;;;4142334;28;21281;-76
2022/11/16 09:44:17;;;;;;;19.03;12.03;;;7.40;99.90;;;;;;4142839;28;20473;-75
2022/11/16 09:46:25;;;;;;;20.43;12.23;;;7.40;99.90;;;;;;4142101;28;20560;-76
2022/11/16 09:48:28;;;;;;;18.23;11.20;;;7.40;99.90;;;;;;4143096;28;20489;-74
2022/11/16 09:50:42;;;;;;;20.37;11.83;;;7.50;99.90;;;;;;4142883;28;20446;-75
2022/11/16 09:52:48;;;;;;;16.60;10.00;;;7.50;99.90;;;;;;4140691;28;20489;-76
2022/11/16 09:54:53;;;;;;;17.40;9.70;;;7.50;99.90;;;;;;4144263;28;20490;-75
2022/11/16 09:56:59;;;;;;;17.03;9.17;;;7.50;99.90;;;;;;4142698;28;20458;-76
2022/11/16 09:59:05;;;;;;;14.60;8.43;;;7.60;99.90;;;;;;4139937;28;21115;-76
2022/11/16 10:01:20;;;;;;;15.93;8.93;;;7.60;99.90;;;;;;4144599;28;20450;-75
2022/11/16 10:03:26;;;;;;;17.33;9.53;;;7.60;99.90;;;;;;4142742;28;20474;-76
2022/11/16 10:05:32;;;;;;;17.10;8.30;;;7.60;99.90;;;;;;4141956;28;20552;-76
2022/11/16 10:07:42;;;;;;;14.53;7.97;;;7.70;99.90;;;;;;4141477;28;20525;-76
2022/11/16 10:09:45;;;;;;;13.90;6.73;;;7.70;99.90;;;;;;4143488;28;21254;-76
2022/11/16 10:12:05;;;;;;;12.97;6.70;;;7.70;99.90;;;;;;4158256;28;20453;-75
2022/11/16 10:14:23;;;;;;;12.73;7.03;;;7.70;99.90;;;;;;4145612;28;20443;-75
2022/11/16 10:16:30;;;;;;;10.50;6.30;;;7.80;99.90;;;;;;4143625;28;20459;-75
2022/11/16 10:18:52;;;;;;;11.37;6.27;;;7.80;99.90;;;;;;4141742;28;20470;-75
2022/11/16 10:21:21;;;;;;;11.83;6.87;;;7.80;99.90;;;;;;4155851;28;20211;-75
2022/11/16 10:23:36;;;;;;;10.93;6.17;;;7.80;99.90;;;;;;4139357;28;20487;-75
2022/11/16 10:25:45;;;;;;;13.00;6.13;;;7.80;99.90;;;;;;4140682;28;20211;-76
2022/11/16 10:28:04;;;;;;;10.03;6.00;;;7.80;99.90;;;;;;4143485;28;20537;-76
2022/11/16 10:30:15;;;;;;;12.17;6.67;;;7.90;99.90;;;;;;4143941;28;21045;-75
2022/11/16 10:32:24;;;;;;;10.47;6.30;;;7.90;99.90;;;;;;4144989;28;20918;-74
2022/11/16 10:34:30;;;;;;;13.40;7.33;;;7.90;99.90;;;;;;4141124;28;20480;-76
2022/11/16 10:36:35;;;;;;;13.77;7.00;;;7.90;99.90;;;;;;4142075;28;20830;-75
2022/11/16 10:38:40;;;;;;;13.07;7.07;;;7.90;99.90;;;;;;4144057;28;20447;-76
2022/11/16 10:40:49;;;;;;;13.90;7.27;;;7.90;99.90;;;;;;4145562;28;20827;-73
2022/11/16 10:42:59;;;;;;;11.27;6.80;;;7.90;99.90;;;;;;4138044;28;20483;-75
2022/11/16 10:45:08;;;;;;;11.53;6.43;;;8.00;99.90;;;;;;4142922;28;20553;-75
2022/11/16 10:47:18;;;;;;;11.60;6.23;;;8.00;99.90;;;;;;4143850;28;20956;-73
2022/11/16 10:49:28;;;;;;;9.60;5.77;;;8.00;99.90;;;;;;4143515;28;20462;-74
2022/11/16 10:51:29;;;;;;;10.77;5.73;;;8.00;99.90;;;;;;4145631;28;20466;-75
2022/11/16 10:53:34;;;;;;;10.70;5.70;;;8.00;99.90;;;;;;4158045;28;20481;-73
2022/11/16 10:55:37;;;;;;;11.17;6.10;;;8.10;99.90;;;;;;4142294;28;20498;-75
2022/11/16 10:57:55;;;;;;;13.03;6.17;;;8.10;99.90;;;;;;4141954;28;20259;-74
2022/11/16 10:59:57;;;;;;;10.47;6.00;;;8.10;99.90;;;;;;4143987;28;20467;-73
2022/11/16 11:02:00;;;;;;;11.40;6.20;;;8.10;99.90;;;;;;4144216;28;20273;-73
2022/11/16 11:04:17;;;;;;;10.13;5.97;;;8.10;99.90;;;;;;4144144;28;20469;-74
2022/11/16 11:06:22;;;;;;;13.63;6.27;;;8.20;99.90;;;;;;4143887;28;20474;-76
2022/11/16 11:08:30;;;;;;;10.17;5.70;;;8.10;99.90;;;;;;4142218;28;20674;-75
2022/11/16 11:10:34;;;;;;;9.80;5.60;;;8.20;99.90;;;;;;4142617;28;20470;-75
2022/11/16 11:12:39;;;;;;;9.90;6.17;;;8.20;99.90;;;;;;4142466;28;20470;-75
2022/11/16 11:14:41;;;;;;;10.90;6.10;;;8.20;99.90;;;;;;4145765;28;20842;-75
2022/11/16 11:16:43;;;;;;;9.47;5.83;;;8.20;99.90;;;;;;4141046;28;20284;-76
2022/11/16 11:18:50;;;;;;;9.10;5.27;;;8.20;99.90;;;;;;4143973;28;20517;-74
2022/11/16 11:21:05;;;;;;;8.47;5.57;;;8.20;99.90;;;;;;4136986;28;20473;-74
2022/11/16 11:23:13;;;;;;;11.07;5.90;;;8.20;99.90;;;;;;4143775;28;20494;-73
2022/11/16 11:25:21;;;;;;;9.97;5.90;;;8.20;99.90;;;;;;4143117;28;20446;-73
2022/11/16 11:27:32;;;;;;;10.30;5.60;;;8.20;99.90;;;;;;4141610;28;20454;-73
2022/11/16 11:29:38;;;;;;;11.27;5.60;;;8.20;99.90;;;;;;4142504;28;21173;-74